Terminal Aerodrome Forecast
Issued by NWS Portland, ME

Home | Current Version | Previous Version | Text Only | Print | Product List | Glossary On
Versions: 1 2 3 4 5 6 7 8 9 10 11 12 13 14 15 16 17 18 19 20 21 22
000
FTUS41 KGYX 051406 AAC
TAFPWM
TAF AMD
KPWM 051406Z 0514/0612 01005KT P6SM VCSH BKN040 OVC080
     FM051500 32003KT 1 1/2SM -SN BR OVC015
      TEMPO 0515/0516 1/2SM SN OVC009
     FM052200 32005KT P6SM BKN050
     FM060300 31006KT P6SM SKC=

USA.gov is the U.S. government's official web portal to all federal, state and local government web resources and services.